Time;durP1;ratioP1;P1;durP2;ratioP2;P2;SDS_P1;SDS_P2;PMS_P1;PMS_P2;Temp;Humidity;BMP_temperature;BMP_pressure;BME280_temperature;BME280_humidity;BME280_pressure;Samples;Min_cycle;Max_cycle;Signal;HPM_P1;HPM_P2
2023/03/15 00:00:44;;;;;;;0.40;0.40;;;3.90;99.90;;;;;;5055434;28;20245;-68
2023/03/15 00:03:09;;;;;;;0.50;0.50;;;3.90;99.90;;;;;;5055835;28;20186;-68
2023/03/15 00:05:35;;;;;;;0.40;0.40;;;3.90;99.60;;;;;;5055762;28;20226;-68
2023/03/15 00:08:01;;;;;;;0.40;0.40;;;3.90;99.60;;;;;;5055869;28;20415;-68
2023/03/15 00:10:27;;;;;;;0.40;0.40;;;3.90;99.60;;;;;;5055695;28;20399;-68
2023/03/15 00:12:53;;;;;;;0.65;0.65;;;3.90;99.20;;;;;;5055520;28;20697;-68
2023/03/15 00:15:19;;;;;;;0.40;0.40;;;3.90;99.20;;;;;;5055890;28;20170;-68
2023/03/15 00:17:45;;;;;;;0.40;0.40;;;3.90;99.20;;;;;;5055642;28;20641;-68
2023/03/15 00:20:13;;;;;;;0.30;0.30;;;3.80;98.50;;;;;;5055469;28;20178;-68
2023/03/15 00:22:40;;;;;;;0.40;0.40;;;3.70;98.70;;;;;;5055577;28;20184;-68
2023/03/15 00:25:06;;;;;;;0.40;0.40;;;3.60;98.90;;;;;;5055589;28;20560;-68
2023/03/15 00:27:32;;;;;;;0.50;0.50;;;3.50;98.40;;;;;;5055416;28;20173;-68
2023/03/15 00:29:57;;;;;;;0.40;0.40;;;3.50;98.70;;;;;;5055374;28;20901;-68
2023/03/15 00:32:23;;;;;;;2.70;0.93;;;3.50;98.60;;;;;;5037186;28;20232;-68
2023/03/15 00:34:49;;;;;;;0.40;0.40;;;3.40;98.40;;;;;;5055122;28;20601;-68
2023/03/15 00:37:18;;;;;;;0.40;0.40;;;3.30;98.30;;;;;;5055356;28;20733;-68
2023/03/15 00:39:45;;;;;;;1.02;0.98;;;3.30;99.10;;;;;;5055120;28;20185;-68
2023/03/15 00:42:15;;;;;;;0.65;0.65;;;3.30;99.20;;;;;;5054940;28;20166;-68
2023/03/15 00:44:42;;;;;;;0.40;0.40;;;3.30;98.90;;;;;;5054959;28;20610;-68
2023/03/15 00:47:09;;;;;;;0.40;0.40;;;3.10;97.00;;;;;;5055188;28;20209;-68
2023/03/15 00:49:35;;;;;;;0.40;0.40;;;3.10;97.10;;;;;;5055086;28;20222;-68
2023/03/15 00:52:00;;;;;;;0.30;0.30;;;3.00;97.10;;;;;;5054578;28;20291;-68
2023/03/15 00:54:26;;;;;;;0.30;0.30;;;2.90;96.20;;;;;;5054801;28;20269;-68
2023/03/15 00:56:52;;;;;;;0.30;0.30;;;2.80;96.50;;;;;;5055043;28;20169;-68
2023/03/15 00:59:17;;;;;;;0.83;0.83;;;2.80;96.80;;;;;;5054806;28;20204;-67
2023/03/15 01:01:43;;;;;;;0.30;0.30;;;2.70;96.60;;;;;;5036775;28;20174;-68
2023/03/15 01:04:11;;;;;;;0.30;0.30;;;2.70;97.30;;;;;;5054462;28;20186;-68
2023/03/15 01:06:37;;;;;;;0.98;0.98;;;2.60;97.70;;;;;;5054743;28;20170;-68
2023/03/15 01:09:03;;;;;;;0.30;0.30;;;2.60;97.80;;;;;;5054581;28;20202;-68
2023/03/15 01:11:29;;;;;;;0.30;0.30;;;2.70;97.80;;;;;;5054374;28;20200;-68
2023/03/15 01:13:56;;;;;;;0.37;0.37;;;2.70;97.20;;;;;;5053641;28;20427;-68
2023/03/15 01:16:22;;;;;;;0.40;0.40;;;2.70;97.40;;;;;;5054410;28;20408;-68
2023/03/15 01:18:50;;;;;;;0.30;0.30;;;2.70;96.90;;;;;;5054508;28;20173;-68
2023/03/15 01:21:16;;;;;;;0.30;0.30;;;2.60;97.60;;;;;;5054144;28;20585;-68
2023/03/15 01:23:42;;;;;;;0.40;0.40;;;2.50;97.40;;;;;;5054591;28;20199;-67
2023/03/15 01:26:12;;;;;;;0.30;0.30;;;2.40;97.10;;;;;;5054215;28;20190;-68
2023/03/15 01:28:38;;;;;;;1.20;1.20;;;2.30;97.30;;;;;;5054409;28;20403;-68
2023/03/15 01:31:03;;;;;;;0.40;0.40;;;2.20;97.60;;;;;;5053971;28;20326;-68
2023/03/15 01:33:29;;;;;;;0.40;0.40;;;2.10;97.10;;;;;;5053989;28;20732;-68
2023/03/15 01:36:14;;;;;;;0.30;0.30;;;2.10;96.90;;;;;;5054009;28;20172;-68
2023/03/15 01:38:40;;;;;;;0.77;0.77;;;1.90;96.90;;;;;;5054050;28;20187;-68
2023/03/15 01:41:05;;;;;;;0.50;0.50;;;1.90;97.30;;;;;;5053924;28;20180;-68
2023/03/15 01:43:31;;;;;;;0.30;0.30;;;1.90;97.50;;;;;;5053995;28;20439;-67
2023/03/15 01:46:14;;;;;;;0.40;0.40;;;1.90;97.30;;;;;;5053819;28;20175;-68
2023/03/15 01:48:55;;;;;;;0.30;0.30;;;1.70;97.20;;;;;;5053729;28;20418;-67
2023/03/15 01:51:30;;;;;;;0.30;0.30;;;1.60;97.20;;;;;;5053655;28;20268;-68
2023/03/15 01:54:01;;;;;;;0.30;0.30;;;1.50;97.90;;;;;;5053881;28;20191;-68
2023/03/15 01:56:28;;;;;;;1.77;1.75;;;1.40;98.00;;;;;;5053844;28;20165;-68
2023/03/15 01:58:55;;;;;;;0.30;0.30;;;1.50;98.00;;;;;;5053550;28;20215;-68
2023/03/15 02:01:21;;;;;;;0.30;0.30;;;1.40;97.90;;;;;;5053390;28;20511;-68
2023/03/15 02:03:52;;;;;;;0.30;0.30;;;1.40;98.00;;;;;;5053593;28;20278;-68
2023/03/15 02:06:22;;;;;;;0.40;0.40;;;1.30;97.90;;;;;;5053539;28;20497;-68
2023/03/15 02:08:55;;;;;;;0.98;0.98;;;1.30;98.10;;;;;;5053742;28;20168;-68
2023/03/15 02:11:24;;;;;;;0.30;0.30;;;1.30;98.10;;;;;;5053364;28;20298;-68
2023/03/15 02:13:51;;;;;;;1.40;0.60;;;1.20;98.10;;;;;;5035451;28;20196;-68
2023/03/15 02:16:17;;;;;;;0.50;0.50;;;1.20;98.10;;;;;;5053344;28;20173;-67
2023/03/15 02:18:43;;;;;;;0.40;0.40;;;1.10;98.40;;;;;;5053452;28;20537;-68
2023/03/15 02:21:47;;;;;;;0.30;0.30;;;1.10;99.00;;;;;;5053201;28;20260;-68
2023/03/15 02:24:43;;;;;;;0.38;0.38;;;1.00;99.00;;;;;;5011526;28;20210;-68
2023/03/15 02:27:09;;;;;;;0.63;0.63;;;1.00;99.10;;;;;;5053567;28;20198;-68
2023/03/15 02:29:35;;;;;;;0.40;0.40;;;1.00;98.50;;;;;;5053382;28;20531;-68
2023/03/15 02:32:04;;;;;;;0.30;0.30;;;1.00;98.50;;;;;;5052920;28;20206;-67
2023/03/15 02:34:31;;;;;;;0.40;0.40;;;0.90;98.60;;;;;;5053002;28;20199;-67
2023/03/15 02:36:56;;;;;;;0.30;0.30;;;0.90;99.10;;;;;;5053195;28;20210;-67
2023/03/15 02:39:23;;;;;;;0.30;0.30;;;0.90;99.40;;;;;;5053246;28;20163;-68
2023/03/15 02:41:53;;;;;;;0.30;0.30;;;0.80;99.70;;;;;;5052976;28;20527;-68
2023/03/15 02:44:32;;;;;;;0.30;0.30;;;0.80;99.90;;;;;;5052914;28;20211;-68
2023/03/15 02:47:05;;;;;;;0.30;0.30;;;0.80;99.90;;;;;;5052984;28;20171;-67
2023/03/15 02:49:37;;;;;;;0.30;0.30;;;1.00;99.80;;;;;;5053271;28;20179;-68
2023/03/15 02:52:03;;;;;;;0.40;0.40;;;1.00;99.60;;;;;;5052972;28;20197;-67
2023/03/15 02:54:33;;;;;;;0.30;0.30;;;1.00;99.70;;;;;;5052923;28;20196;-67
2023/03/15 02:56:59;;;;;;;0.30;0.30;;;0.90;99.30;;;;;;5053075;28;20730;-68
2023/03/15 02:59:25;;;;;;;0.40;0.40;;;0.90;99.30;;;;;;5052848;28;20171;-68
2023/03/15 03:01:51;;;;;;;0.30;0.30;;;0.80;99.50;;;;;;5052760;28;20208;-67
2023/03/15 03:04:17;;;;;;;0.30;0.30;;;0.80;99.80;;;;;;5052822;28;20194;-68
2023/03/15 03:06:43;;;;;;;0.40;0.40;;;0.80;99.90;;;;;;5052783;28;20261;-68
2023/03/15 03:09:10;;;;;;;0.83;0.83;;;0.90;99.90;;;;;;5052967;28;20722;-67
2023/03/15 03:11:35;;;;;;;0.30;0.30;;;0.80;99.90;;;;;;5052529;28;20205;-68
2023/03/15 03:14:01;;;;;;;0.30;0.30;;;0.90;99.90;;;;;;5052653;28;20187;-68
2023/03/15 03:16:27;;;;;;;0.50;0.50;;;0.90;99.90;;;;;;5052803;28;20628;-68
2023/03/15 03:18:53;;;;;;;0.30;0.30;;;0.80;99.90;;;;;;5052848;28;20206;-68
2023/03/15 03:21:19;;;;;;;0.30;0.30;;;0.60;99.90;;;;;;5052777;28;20175;-68
2023/03/15 03:23:45;;;;;;;0.50;0.50;;;0.50;99.90;;;;;;5034924;28;20528;-68
2023/03/15 03:26:16;;;;;;;0.30;0.30;;;0.40;99.90;;;;;;5052670;28;20183;-67
2023/03/15 03:28:44;;;;;;;0.60;0.60;;;0.40;99.90;;;;;;5052710;28;20410;-67
2023/03/15 03:31:36;;;;;;;0.30;0.30;;;0.40;99.90;;;;;;5052399;28;20191;-67
2023/03/15 03:34:01;;;;;;;0.30;0.30;;;0.40;99.90;;;;;;5050280;28;20249;-67
2023/03/15 03:36:27;;;;;;;0.30;0.30;;;0.40;99.90;;;;;;5054983;28;20210;-68
2023/03/15 03:38:53;;;;;;;0.40;0.40;;;0.50;99.90;;;;;;5056287;28;20181;-68
2023/03/15 03:41:20;;;;;;;0.30;0.30;;;0.50;99.90;;;;;;5056276;28;20170;-67
2023/03/15 03:43:46;;;;;;;0.40;0.40;;;0.50;99.90;;;;;;5056064;28;20201;-68
2023/03/15 03:46:11;;;;;;;0.30;0.30;;;0.40;99.90;;;;;;5056207;28;20175;-68
2023/03/15 03:48:37;;;;;;;0.30;0.30;;;0.50;99.90;;;;;;5056123;28;20449;-67
2023/03/15 03:51:03;;;;;;;0.40;0.40;;;0.50;99.90;;;;;;5055885;28;20382;-68
2023/03/15 03:53:29;;;;;;;0.30;0.30;;;0.40;99.90;;;;;;5055940;28;20205;-67
2023/03/15 03:55:54;;;;;;;0.50;0.50;;;0.40;99.90;;;;;;5056140;28;20248;-67
2023/03/15 03:58:20;;;;;;;0.40;0.40;;;0.30;99.90;;;;;;5038072;28;20207;-68
2023/03/15 04:00:46;;;;;;;0.30;0.30;;;0.20;99.90;;;;;;5037880;28;20174;-68
2023/03/15 04:03:12;;;;;;;0.33;0.33;;;0.20;99.90;;;;;;5055722;28;20429;-67
2023/03/15 04:05:38;;;;;;;0.30;0.30;;;0.20;99.90;;;;;;5055825;28;20187;-67
2023/03/15 04:08:03;;;;;;;0.40;0.40;;;0.20;99.90;;;;;;5056162;28;20758;-67
2023/03/15 04:10:33;;;;;;;0.30;0.30;;;0.20;99.90;;;;;;5055875;28;20167;-68
2023/03/15 04:12:59;;;;;;;0.50;0.50;;;0.40;99.90;;;;;;5055501;28;20920;-67
2023/03/15 04:15:25;;;;;;;0.30;0.30;;;0.40;99.90;;;;;;5055608;28;20250;-68
2023/03/15 04:17:54;;;;;;;0.30;0.30;;;0.40;99.90;;;;;;5055699;28;20404;-67
2023/03/15 04:20:21;;;;;;;0.40;0.40;;;0.30;99.90;;;;;;5055459;28;20162;-68
2023/03/15 04:22:50;;;;;;;0.40;0.40;;;0.30;99.90;;;;;;5055382;28;20269;-68
2023/03/15 04:25:17;;;;;;;0.30;0.30;;;0.20;99.90;;;;;;5055436;28;20178;-68
2023/03/15 04:27:43;;;;;;;0.30;0.30;;;0.20;99.90;;;;;;5055502;28;20545;-68
2023/03/15 04:30:10;;;;;;;0.30;0.30;;;0.10;99.90;;;;;;5055287;28;20179;-67
2023/03/15 04:32:35;;;;;;;0.30;0.30;;;0.10;99.90;;;;;;5055044;28;20210;-68
2023/03/15 04:35:01;;;;;;;0.40;0.40;;;0.10;99.90;;;;;;5055241;28;20173;-67
2023/03/15 04:37:27;;;;;;;0.83;0.63;;;0.10;99.90;;;;;;5055418;28;20166;-67
2023/03/15 04:39:54;;;;;;;0.40;0.40;;;0.10;99.90;;;;;;5055107;28;20432;-67
2023/03/15 04:42:20;;;;;;;0.33;0.33;;;0.10;99.90;;;;;;5055071;28;20217;-67
2023/03/15 04:44:46;;;;;;;0.40;0.40;;;0.20;99.90;;;;;;5054940;28;20201;-68
2023/03/15 04:47:12;;;;;;;0.40;0.40;;;0.20;99.90;;;;;;5054003;28;20416;-67
2023/03/15 04:49:37;;;;;;;0.40;0.40;;;0.30;99.90;;;;;;5054910;28;20464;-67
2023/03/15 04:52:03;;;;;;;0.30;0.30;;;0.30;99.90;;;;;;5054648;28;20203;-68
2023/03/15 04:54:29;;;;;;;0.43;0.43;;;0.30;99.90;;;;;;5054769;28;20241;-68
2023/03/15 04:56:54;;;;;;;0.40;0.40;;;0.30;99.90;;;;;;5055083;28;20162;-68
2023/03/15 04:59:20;;;;;;;0.30;0.30;;;0.20;99.90;;;;;;5055003;28;20511;-67
2023/03/15 05:01:46;;;;;;;0.40;0.40;;;0.20;99.90;;;;;;5054565;28;20178;-67
2023/03/15 05:04:12;;;;;;;0.30;0.30;;;0.10;99.90;;;;;;5054780;28;20558;-67
2023/03/15 05:06:37;;;;;;;0.40;0.40;;;0.10;99.90;;;;;;5054627;28;20178;-68
2023/03/15 05:09:03;;;;;;;0.73;0.73;;;0.10;99.90;;;;;;5054658;28;20405;-67
2023/03/15 05:11:29;;;;;;;0.40;0.40;;;0.20;99.90;;;;;;5054527;28;20206;-68
2023/03/15 05:13:55;;;;;;;0.30;0.30;;;0.20;99.90;;;;;;5054378;28;20224;-67
2023/03/15 05:16:21;;;;;;;0.30;0.30;;;0.20;99.90;;;;;;5054358;28;20705;-67
2023/03/15 05:18:46;;;;;;;0.30;0.30;;;0.10;99.90;;;;;;5054842;28;20177;-67
2023/03/15 05:21:12;;;;;;;0.40;0.40;;;0.10;99.90;;;;;;5054233;28;20166;-67
2023/03/15 05:23:38;;;;;;;1.80;1.80;;;0.10;99.90;;;;;;5054257;28;20186;-68
2023/03/15 05:26:03;;;;;;;0.50;0.50;;;0.20;99.90;;;;;;5054316;28;20651;-67
2023/03/15 05:28:30;;;;;;;0.40;0.40;;;0.20;99.90;;;;;;5054364;28;20197;-67
2023/03/15 05:30:56;;;;;;;0.40;0.40;;;0.30;99.90;;;;;;5054091;28;20440;-67
2023/03/15 05:33:23;;;;;;;0.40;0.40;;;0.40;99.90;;;;;;5054053;28;20202;-67
2023/03/15 05:35:51;;;;;;;0.30;0.30;;;0.40;99.90;;;;;;5054203;28;20162;-67
2023/03/15 05:38:17;;;;;;;0.30;0.30;;;0.50;99.90;;;;;;5054005;28;20174;-67
2023/03/15 05:40:44;;;;;;;0.40;0.40;;;0.60;99.90;;;;;;5053988;28;20529;-67
2023/03/15 05:43:10;;;;;;;0.40;0.40;;;0.60;99.90;;;;;;5053993;28;20194;-67
2023/03/15 05:45:36;;;;;;;0.50;0.50;;;0.70;99.90;;;;;;5053797;28;20178;-67
2023/03/15 05:48:03;;;;;;;0.40;0.40;;;0.80;99.80;;;;;;5054033;28;20174;-67
2023/03/15 05:50:29;;;;;;;0.30;0.30;;;0.90;99.70;;;;;;5053844;28;20521;-68
2023/03/15 05:52:55;;;;;;;0.30;0.30;;;0.90;99.60;;;;;;5053653;28;20202;-67
2023/03/15 05:55:21;;;;;;;0.40;0.40;;;0.90;99.40;;;;;;5053669;28;20401;-68
2023/03/15 05:57:47;;;;;;;1.20;1.10;;;0.90;99.30;;;;;;5053824;28;20193;-67
2023/03/15 06:00:14;;;;;;;0.30;0.30;;;0.90;99.50;;;;;;5053305;28;20169;-68
2023/03/15 06:02:40;;;;;;;0.30;0.30;;;1.00;99.80;;;;;;5053901;28;20175;-67
2023/03/15 06:05:06;;;;;;;0.40;0.40;;;1.30;99.90;;;;;;5053570;28;20175;-67
2023/03/15 06:07:32;;;;;;;0.40;0.40;;;1.20;99.50;;;;;;5053603;28;20266;-67
2023/03/15 06:09:58;;;;;;;0.30;0.30;;;1.20;99.50;;;;;;5053694;28;20255;-67
2023/03/15 06:12:23;;;;;;;0.40;0.40;;;1.30;99.70;;;;;;5053304;28;20248;-67
2023/03/15 06:14:49;;;;;;;0.30;0.30;;;1.30;99.60;;;;;;5053397;28;20175;-67
2023/03/15 06:17:14;;;;;;;0.40;0.40;;;1.40;99.50;;;;;;5053598;28;20260;-67
2023/03/15 06:19:40;;;;;;;0.53;0.53;;;1.40;99.20;;;;;;5053413;28;20172;-68
2023/03/15 06:22:06;;;;;;;0.30;0.30;;;1.50;99.20;;;;;;5053292;28;20185;-67
2023/03/15 06:24:31;;;;;;;0.40;0.40;;;1.70;98.80;;;;;;5053278;28;20574;-68
2023/03/15 06:26:57;;;;;;;0.40;0.40;;;1.80;98.40;;;;;;5053436;28;20261;-67
2023/03/15 06:29:23;;;;;;;0.50;0.50;;;1.90;98.30;;;;;;5053399;28;20204;-67
2023/03/15 06:31:49;;;;;;;0.30;0.30;;;2.00;98.20;;;;;;5053131;28;20268;-67
2023/03/15 06:34:15;;;;;;;0.40;0.40;;;2.10;98.20;;;;;;5053040;28;20505;-68
2023/03/15 06:36:41;;;;;;;0.40;0.40;;;2.10;97.60;;;;;;5035322;28;20180;-67
2023/03/15 06:39:10;;;;;;;0.30;0.30;;;2.10;97.40;;;;;;5053259;28;20526;-68
2023/03/15 06:41:36;;;;;;;0.55;0.55;;;2.10;97.40;;;;;;5052929;28;20657;-67
2023/03/15 06:44:01;;;;;;;0.37;0.37;;;1.90;97.20;;;;;;5053215;28;20237;-67
2023/03/15 06:46:27;;;;;;;0.40;0.40;;;1.90;97.40;;;;;;5053098;28;20498;-67
2023/03/15 06:48:52;;;;;;;1.07;0.97;;;2.00;97.60;;;;;;5053124;28;20182;-67
2023/03/15 06:51:18;;;;;;;0.40;0.40;;;2.20;97.90;;;;;;5052862;28;20205;-68
2023/03/15 06:53:44;;;;;;;0.37;0.37;;;2.40;97.70;;;;;;5053065;28;20201;-68
2023/03/15 06:56:10;;;;;;;0.50;0.50;;;2.60;97.70;;;;;;5035117;28;20185;-68
2023/03/15 06:58:36;;;;;;;0.40;0.40;;;2.80;97.30;;;;;;5053014;28;20405;-67
2023/03/15 07:01:01;;;;;;;0.50;0.50;;;2.90;96.90;;;;;;5052653;28;20181;-68
2023/03/15 07:03:27;;;;;;;0.30;0.30;;;3.20;97.00;;;;;;5052837;28;20716;-68
2023/03/15 07:05:53;;;;;;;0.40;0.40;;;3.50;96.90;;;;;;5053014;28;20404;-68
2023/03/15 07:08:23;;;;;;;1.10;0.73;;;3.80;96.80;;;;;;5053201;28;20170;-68
2023/03/15 07:10:49;;;;;;;0.30;0.30;;;4.40;96.80;;;;;;5054135;28;20588;-68
2023/03/15 07:13:16;;;;;;;0.40;0.40;;;4.70;95.20;;;;;;5056852;28;20294;-68
2023/03/15 07:15:41;;;;;;;0.70;0.50;;;5.10;94.60;;;;;;5056756;28;20178;-68
2023/03/15 07:18:07;;;;;;;0.73;0.73;;;6.10;94.30;;;;;;5057080;28;20171;-68
2023/03/15 07:20:33;;;;;;;0.50;0.50;;;7.40;92.00;;;;;;5056565;28;20178;-68
2023/03/15 07:22:58;;;;;;;0.60;0.60;;;7.70;89.20;;;;;;5054918;28;20553;-68
2023/03/15 07:25:24;;;;;;;0.77;0.77;;;8.20;86.10;;;;;;5056402;28;20181;-68
2023/03/15 07:27:51;;;;;;;2.20;1.70;;;9.10;83.10;;;;;;5056673;28;20176;-68
2023/03/15 07:30:17;;;;;;;0.90;0.90;;;10.10;80.00;;;;;;5056295;28;20409;-68
2023/03/15 07:32:43;;;;;;;1.27;1.17;;;11.60;74.00;;;;;;5056125;28;20464;-69
2023/03/15 07:35:09;;;;;;;0.60;0.60;;;13.90;67.70;;;;;;5056411;28;20396;-69
2023/03/15 07:37:35;;;;;;;0.60;0.60;;;15.00;58.00;;;;;;5056466;28;20932;-69
2023/03/15 07:40:08;;;;;;;1.00;0.87;;;15.10;56.40;;;;;;5056448;28;20409;-69
2023/03/15 07:42:34;;;;;;;0.80;0.80;;;15.50;55.80;;;;;;5056240;28;20178;-69
2023/03/15 07:45:00;;;;;;;0.87;0.60;;;16.10;54.00;;;;;;5056202;28;20403;-69
2023/03/15 07:47:25;;;;;;;0.60;0.50;;;15.80;51.20;;;;;;5056165;28;20767;-69
2023/03/15 07:49:51;;;;;;;0.47;0.47;;;14.60;51.50;;;;;;5056306;28;20246;-68
2023/03/15 07:52:17;;;;;;;0.40;0.40;;;13.60;53.20;;;;;;5056047;28;20194;-68
2023/03/15 07:54:42;;;;;;;0.47;0.47;;;12.80;52.60;;;;;;5055941;28;20182;-68
2023/03/15 07:57:08;;;;;;;1.37;1.37;;;11.60;53.70;;;;;;5038126;28;20178;-68
2023/03/15 07:59:34;;;;;;;0.30;0.30;;;10.80;56.50;;;;;;5055986;28;20178;-68
2023/03/15 08:01:59;;;;;;;0.40;0.40;;;10.30;57.80;;;;;;5055830;28;20170;-68
2023/03/15 08:04:25;;;;;;;5.70;1.13;;;9.90;59.20;;;;;;5056008;28;20205;-68
2023/03/15 08:06:50;;;;;;;1.37;1.27;;;9.40;59.20;;;;;;5056003;28;20201;-68
2023/03/15 08:09:16;;;;;;;1.33;1.33;;;8.80;61.40;;;;;;5055961;28;20231;-68
2023/03/15 08:11:41;;;;;;;0.60;0.60;;;8.40;62.30;;;;;;5055455;28;20194;-68
2023/03/15 08:14:07;;;;;;;0.70;0.70;;;8.30;64.20;;;;;;5055628;28;20228;-68
2023/03/15 08:16:33;;;;;;;0.70;0.70;;;8.00;64.60;;;;;;5055817;28;20176;-68
2023/03/15 08:19:00;;;;;;;0.40;0.40;;;7.50;66.40;;;;;;5055658;28;20537;-68
2023/03/15 08:21:25;;;;;;;1.30;0.68;;;7.50;66.80;;;;;;5055260;28;20186;-68
2023/03/15 08:23:51;;;;;;;0.30;0.30;;;8.00;70.00;;;;;;5055431;28;20198;-69
2023/03/15 08:26:16;;;;;;;0.50;0.50;;;9.50;69.20;;;;;;5055432;28;20635;-69
2023/03/15 08:28:42;;;;;;;0.40;0.40;;;12.00;64.90;;;;;;5055440;28;20224;-69
2023/03/15 08:31:08;;;;;;;0.30;0.30;;;14.90;55.90;;;;;;5055202;28;20170;-69
2023/03/15 08:33:34;;;;;;;0.77;0.63;;;16.80;51.10;;;;;;5055217;28;20589;-69
2023/03/15 08:36:00;;;;;;;0.50;0.40;;;18.20;46.10;;;;;;5055244;28;20409;-69
2023/03/15 08:38:26;;;;;;;1.50;0.53;;;18.30;43.50;;;;;;5055423;28;20946;-69
2023/03/15 08:40:58;;;;;;;0.80;0.50;;;19.00;42.70;;;;;;5055382;28;20178;-69
2023/03/15 08:43:23;;;;;;;0.30;0.30;;;19.40;41.90;;;;;;5055184;28;20409;-69
2023/03/15 08:45:50;;;;;;;0.60;0.60;;;20.30;41.50;;;;;;5055184;28;20404;-69
2023/03/15 08:48:16;;;;;;;0.40;0.40;;;20.40;39.90;;;;;;5055186;28;20182;-70
2023/03/15 08:50:41;;;;;;;0.50;0.50;;;20.90;40.50;;;;;;5054957;28;20387;-70
2023/03/15 08:53:08;;;;;;;0.60;0.60;;;21.70;37.90;;;;;;5054944;28;20229;-70
2023/03/15 08:55:33;;;;;;;0.60;0.60;;;22.30;38.50;;;;;;5054929;28;20393;-70
2023/03/15 08:58:02;;;;;;;0.50;0.40;;;22.50;36.20;;;;;;5055182;28;20416;-70
2023/03/15 09:00:27;;;;;;;0.40;0.40;;;22.70;35.60;;;;;;5055023;28;20170;-70
2023/03/15 09:02:54;;;;;;;0.30;0.30;;;21.90;34.90;;;;;;5054858;28;20481;-70
2023/03/15 09:05:21;;;;;;;0.70;0.70;;;21.80;36.80;;;;;;5054740;28;20178;-70
2023/03/15 09:07:48;;;;;;;0.40;0.40;;;22.20;36.60;;;;;;5054677;28;20466;-70
2023/03/15 09:10:15;;;;;;;1.13;0.50;;;22.20;36.80;;;;;;5054639;28;20407;-70
2023/03/15 09:12:42;;;;;;;0.50;0.50;;;21.80;35.30;;;;;;5054647;28;20452;-70
2023/03/15 09:15:10;;;;;;;0.37;0.37;;;21.90;36.60;;;;;;5054559;28;20401;-70
2023/03/15 09:17:36;;;;;;;0.50;0.50;;;22.20;36.70;;;;;;5054679;28;20463;-70
2023/03/15 09:20:03;;;;;;;0.50;0.50;;;22.60;35.40;;;;;;5054666;28;20403;-70
2023/03/15 09:22:29;;;;;;;0.40;0.40;;;22.50;35.80;;;;;;5054267;28;20437;-70
2023/03/15 09:24:55;;;;;;;0.40;0.40;;;22.60;35.00;;;;;;5054342;28;20443;-70
2023/03/15 09:27:20;;;;;;;0.50;0.50;;;22.40;34.00;;;;;;5054316;28;20520;-70
2023/03/15 09:29:46;;;;;;;0.60;0.60;;;22.30;34.60;;;;;;5054353;28;20212;-70
2023/03/15 09:32:12;;;;;;;0.77;0.60;;;22.10;34.70;;;;;;5054105;28;20548;-70
2023/03/15 09:34:37;;;;;;;0.40;0.40;;;20.60;35.60;;;;;;5053379;28;20285;-70
2023/03/15 09:37:04;;;;;;;0.40;0.40;;;19.40;38.20;;;;;;5054108;28;20158;-70
2023/03/15 09:39:32;;;;;;;0.30;0.30;;;19.50;38.10;;;;;;5054316;28;20190;-70
2023/03/15 09:42:01;;;;;;;0.40;0.40;;;19.50;37.70;;;;;;5053855;28;20871;-70
2023/03/15 09:45:05;;;;;;;0.40;0.40;;;19.20;38.20;;;;;;5053859;28;20428;-70
2023/03/15 09:47:41;;;;;;;0.30;0.30;;;19.60;38.50;;;;;;5033097;28;20432;-69
2023/03/15 09:50:43;;;;;;;0.40;0.40;;;19.80;36.70;;;;;;5053795;28;20450;-69
2023/03/15 09:53:17;;;;;;;0.40;0.40;;;16.70;36.50;;;;;;5047993;28;20538;-69
2023/03/15 09:55:45;;;;;;;0.60;0.50;;;14.70;40.30;;;;;;5053975;28;20440;-69
2023/03/15 09:58:16;;;;;;;1.10;0.60;;;14.50;42.70;;;;;;5053664;28;20413;-69
2023/03/15 10:00:52;;;;;;;0.40;0.40;;;14.40;43.50;;;;;;5053665;28;20414;-69
2023/03/15 10:03:38;;;;;;;0.40;0.40;;;13.60;42.40;;;;;;5053566;28;20474;-69
2023/03/15 10:06:12;;;;;;;0.30;0.30;;;12.80;45.50;;;;;;5053529;28;20401;-69
2023/03/15 10:08:38;;;;;;;0.80;0.80;;;12.40;47.30;;;;;;5053463;28;20411;-69
2023/03/15 10:11:33;;;;;;;0.50;0.47;;;12.20;47.30;;;;;;5053277;28;20500;-69
2023/03/15 10:14:19;;;;;;;0.30;0.30;;;12.50;48.50;;;;;;5053516;28;20184;-69
2023/03/15 10:16:50;;;;;;;0.40;0.40;;;13.10;48.70;;;;;;5053620;28;20504;-69
2023/03/15 10:19:25;;;;;;;0.40;0.40;;;12.90;45.70;;;;;;5053424;28;20831;-69
2023/03/15 10:22:26;;;;;;;0.67;0.67;;;13.20;47.10;;;;;;5053397;28;20401;-69
2023/03/15 10:25:13;;;;;;;0.40;0.40;;;14.10;45.90;;;;;;5053274;28;20457;-69
2023/03/15 10:27:57;;;;;;;0.30;0.30;;;14.00;42.30;;;;;;5035486;28;20800;-69
2023/03/15 10:30:28;;;;;;;0.40;0.40;;;13.60;42.60;;;;;;5035225;28;20428;-69
2023/03/15 10:32:59;;;;;;;0.30;0.30;;;14.20;44.00;;;;;;5053078;28;20877;-69
2023/03/15 10:35:25;;;;;;;0.50;0.50;;;14.80;43.20;;;;;;5053055;28;20944;-69
2023/03/15 10:37:51;;;;;;;0.30;0.30;;;15.30;41.80;;;;;;5053252;28;20424;-69
2023/03/15 10:40:38;;;;;;;0.40;0.40;;;15.70;42.50;;;;;;5053046;28;20487;-69
2023/03/15 10:43:16;;;;;;;0.40;0.40;;;15.80;40.40;;;;;;5053279;28;20190;-69
2023/03/15 10:45:45;;;;;;;0.50;0.40;;;15.60;40.70;;;;;;5054362;28;20403;-69
2023/03/15 10:48:11;;;;;;;0.57;0.57;;;15.40;41.00;;;;;;5057322;28;20822;-69
2023/03/15 10:50:39;;;;;;;0.30;0.30;;;15.20;41.30;;;;;;5057205;28;20408;-69
2023/03/15 10:53:10;;;;;;;0.50;0.50;;;15.20;42.90;;;;;;5057097;28;20474;-69
2023/03/15 10:55:44;;;;;;;0.40;0.40;;;15.30;42.10;;;;;;5057144;28;20769;-69
2023/03/15 10:58:16;;;;;;;0.40;0.40;;;15.30;42.00;;;;;;5057260;28;20405;-69
2023/03/15 11:00:49;;;;;;;0.40;0.40;;;15.10;43.20;;;;;;5056890;28;20401;-69
2023/03/15 11:03:21;;;;;;;0.30;0.30;;;14.20;40.80;;;;;;5056900;28;20425;-69
2023/03/15 11:05:50;;;;;;;0.40;0.40;;;13.90;44.00;;;;;;5057095;28;20802;-69
2023/03/15 11:08:19;;;;;;;0.40;0.40;;;12.70;42.70;;;;;;5057055;28;20889;-69
2023/03/15 11:10:53;;;;;;;0.40;0.40;;;11.60;45.00;;;;;;5056634;28;20416;-69
2023/03/15 11:13:29;;;;;;;0.40;0.40;;;11.20;50.00;;;;;;5056871;28;20209;-69
2023/03/15 11:16:03;;;;;;;0.40;0.40;;;10.90;48.70;;;;;;5057041;28;20193;-69
2023/03/15 11:18:43;;;;;;;0.40;0.40;;;10.60;48.50;;;;;;5056794;28;20167;-69
2023/03/15 11:21:13;;;;;;;0.30;0.30;;;10.50;48.20;;;;;;5056599;28;20158;-68
2023/03/15 11:23:43;;;;;;;0.40;0.40;;;9.90;48.20;;;;;;5056589;28;20249;-68
2023/03/15 11:26:16;;;;;;;0.40;0.40;;;9.80;51.80;;;;;;5038815;28;20181;-69
2023/03/15 11:28:47;;;;;;;0.30;0.30;;;9.80;52.50;;;;;;5056678;28;20166;-68
2023/03/15 11:31:13;;;;;;;1.88;1.77;;;9.70;53.10;;;;;;5038494;28;20295;-68
2023/03/15 11:34:05;;;;;;;0.50;0.50;;;9.30;52.70;;;;;;5056344;28;20332;-68
2023/03/15 11:36:33;;;;;;;0.50;0.50;;;9.50;51.00;;;;;;5054180;28;20186;-69
2023/03/15 11:39:03;;;;;;;0.40;0.40;;;9.50;55.40;;;;;;5056309;28;20181;-68
2023/03/15 11:41:40;;;;;;;0.32;0.32;;;9.30;53.30;;;;;;5056236;28;20598;-69
2023/03/15 11:44:25;;;;;;;0.60;0.60;;;9.30;54.40;;;;;;5038287;28;20635;-69
2023/03/15 11:47:03;;;;;;;0.82;0.82;;;9.20;53.60;;;;;;5056277;28;20200;-69
2023/03/15 11:49:47;;;;;;;1.10;0.60;;;9.30;52.50;;;;;;5056282;28;20182;-69
2023/03/15 11:52:15;;;;;;;0.38;0.38;;;9.50;52.60;;;;;;5037980;28;20732;-69
2023/03/15 11:54:42;;;;;;;0.30;0.30;;;9.60;52.40;;;;;;5056107;28;20190;-69
2023/03/15 11:57:46;;;;;;;6.40;2.05;;;9.40;54.40;;;;;;5055857;28;20188;-69
2023/03/15 12:00:25;;;;;;;0.40;0.40;;;9.00;54.50;;;;;;5055992;28;20627;-69
2023/03/15 12:03:00;;;;;;;0.73;0.60;;;8.60;55.30;;;;;;5055743;28;20273;-69
2023/03/15 12:05:49;;;;;;;1.17;0.65;;;8.60;55.20;;;;;;5055894;28;20184;-69
2023/03/15 12:08:44;;;;;;;0.57;0.57;;;8.70;55.20;;;;;;5056095;28;20209;-69
2023/03/15 12:11:22;;;;;;;0.30;0.30;;;8.50;60.30;;;;;;5055613;28;20202;-68
2023/03/15 12:13:59;;;;;;;0.73;0.60;;;8.30;56.60;;;;;;5055613;28;20217;-69
2023/03/15 12:16:33;;;;;;;0.40;0.40;;;8.30;57.50;;;;;;5037849;28;20692;-69
2023/03/15 12:19:01;;;;;;;0.40;0.40;;;8.60;56.00;;;;;;5055833;28;20178;-68
2023/03/15 12:21:33;;;;;;;0.63;0.63;;;8.80;53.40;;;;;;5055396;28;20180;-69
2023/03/15 12:24:05;;;;;;;0.30;0.30;;;8.90;52.60;;;;;;5055598;28;20559;-69
2023/03/15 12:26:41;;;;;;;0.35;0.35;;;8.80;54.20;;;;;;5055282;28;20636;-69
2023/03/15 12:29:27;;;;;;;0.40;0.40;;;8.50;54.80;;;;;;5055593;28;20166;-68
2023/03/15 12:32:02;;;;;;;0.40;0.40;;;8.80;54.80;;;;;;5054928;28;20190;-69
2023/03/15 12:34:46;;;;;;;2.50;0.90;;;9.10;54.40;;;;;;5055082;28;20201;-69
2023/03/15 12:37:14;;;;;;;0.30;0.30;;;9.10;57.30;;;;;;5055525;28;20176;-68
2023/03/15 12:39:50;;;;;;;0.30;0.30;;;8.80;52.60;;;;;;5055517;28;20167;-69
2023/03/15 12:42:31;;;;;;;0.40;0.40;;;8.90;51.90;;;;;;5055194;28;20174;-69
2023/03/15 12:45:39;;;;;;;0.30;0.30;;;9.10;52.50;;;;;;5055189;28;20178;-68
2023/03/15 12:48:05;;;;;;;0.40;0.40;;;8.70;53.00;;;;;;5055262;28;20181;-68
2023/03/15 12:50:43;;;;;;;0.40;0.40;;;8.30;56.80;;;;;;5054839;28;20177;-68
2023/03/15 12:53:29;;;;;;;0.40;0.40;;;8.20;54.70;;;;;;5055034;28;20228;-68
2023/03/15 12:55:56;;;;;;;0.40;0.40;;;8.10;57.50;;;;;;5037414;28;20649;-68
2023/03/15 12:58:35;;;;;;;0.35;0.35;;;7.90;57.60;;;;;;5055091;28;20208;-68
2023/03/15 13:01:04;;;;;;;0.30;0.30;;;7.70;62.40;;;;;;5054643;28;20255;-69
2023/03/15 13:03:33;;;;;;;0.47;0.47;;;7.60;56.90;;;;;;5054717;28;20269;-68
2023/03/15 13:06:33;;;;;;;0.40;0.40;;;7.60;56.90;;;;;;5054578;28;20511;-68